Time;durP1;ratioP1;P1;durP2;ratioP2;P2;SDS_P1;SDS_P2;PMS_P1;PMS_P2;Temp;Humidity;BMP_temperature;BMP_pressure;BME280_temperature;BME280_humidity;BME280_pressure;Samples;Min_cycle;Max_cycle;Signal;HPM_P1;HPM_P2
2022/10/14 00:00:38;;;;;;;;;15.75;15.75;;;;;16.68;88.25;99529.28;5050928;28;45407;-81
2022/10/14 00:03:04;;;;;;;;;18.50;17.25;;;;;16.68;88.67;99531.09;5053682;28;45260;-81
2022/10/14 00:05:29;;;;;;;;;23.00;18.75;;;;;16.66;88.77;99528.53;5068965;28;46907;-81
2022/10/14 00:07:54;;;;;;;;;18.50;15.50;;;;;16.64;88.35;99518.91;5053056;28;45470;-81
2022/10/14 00:10:20;;;;;;;;;22.75;17.50;;;;;16.63;88.73;99520.72;5050191;28;45522;-81
2022/10/14 00:12:46;;;;;;;;;19.00;18.75;;;;;16.63;89.05;99518.03;5053330;28;45475;-81
2022/10/14 00:15:12;;;;;;;;;16.50;16.50;;;;;16.61;88.74;99519.91;5047819;28;46195;-81
2022/10/14 00:17:38;;;;;;;;;21.75;17.50;;;;;16.62;88.67;99516.28;5051873;28;45477;-81
2022/10/14 00:20:04;;;;;;;;;16.00;14.75;;;;;16.61;89.29;99513.72;5054708;28;45625;-82
2022/10/14 00:22:29;;;;;;;;;20.75;19.50;;;;;16.59;89.09;99512.97;5054787;28;45547;-82
2022/10/14 00:24:54;;;;;;;;;23.75;20.75;;;;;16.58;89.50;99517.44;5055459;28;45493;-81
2022/10/14 00:27:20;;;;;;;;;20.25;17.75;;;;;16.55;89.93;99509.63;5053155;28;45622;-81
2022/10/14 00:29:45;;;;;;;;;21.75;19.75;;;;;16.54;89.81;99507.91;5052293;28;45794;-81
2022/10/14 00:32:11;;;;;;;;;24.25;24.25;;;;;16.55;90.02;99511.44;5069709;28;45560;-81
2022/10/14 00:34:36;;;;;;;;;20.75;19.50;;;;;16.55;89.78;99519.44;5054195;28;46535;-81
2022/10/14 00:37:02;;;;;;;;;20.00;19.50;;;;;16.55;90.59;99512.28;5067846;28;45842;-82
2022/10/14 00:39:27;;;;;;;;;21.25;20.75;;;;;16.55;90.08;99514.09;5053775;28;45353;-82
2022/10/14 00:41:53;;;;;;;;;24.75;19.50;;;;;16.55;90.15;99517.63;5053420;28;46272;-81
2022/10/14 00:44:18;;;;;;;;;24.25;19.50;;;;;16.54;90.37;99513.25;5054077;28;46644;-82
2022/10/14 00:46:46;;;;;;;;;20.00;19.00;;;;;16.50;90.21;99518.81;5059317;28;45653;-81
2022/10/14 00:49:22;;;;;;;;;24.50;22.00;;;;;16.41;90.71;99525.56;5054736;28;45547;-81
2022/10/14 00:51:55;;;;;;;;;33.00;30.25;;;;;16.31;90.09;99524.34;5051191;28;45417;-81
2022/10/14 00:54:28;;;;;;;;;29.25;23.75;;;;;16.24;90.65;99534.50;5053627;28;45465;-81
2022/10/14 00:56:53;;;;;;;;;22.75;22.50;;;;;16.22;90.13;99532.84;5067687;28;45943;-81
2022/10/14 00:59:19;;;;;;;;;24.00;21.00;;;;;16.22;90.26;99533.72;5054339;28;45781;-81
2022/10/14 01:01:45;;;;;;;;;15.50;13.25;;;;;16.22;90.34;99531.06;5054012;28;45441;-81
2022/10/14 01:04:10;;;;;;;;;25.25;23.00;;;;;16.22;90.69;99522.22;5052362;28;47034;-81
2022/10/14 01:06:56;;;;;;;;;14.00;12.75;;;;;16.23;90.45;99522.13;5053894;28;45515;-81
2022/10/14 01:09:35;;;;;;;;;23.50;18.75;;;;;16.25;90.27;99514.94;5053960;28;45765;-81
2022/10/14 01:12:23;;;;;;;;;21.50;19.50;;;;;16.29;90.96;99521.75;5053438;28;45387;-81
2022/10/14 01:15:10;;;;;;;;;24.25;20.75;;;;;16.29;90.50;99512.94;5047089;28;46635;-81
2022/10/14 01:18:14;;;;;;;;;18.50;17.25;;;;;16.30;90.43;99514.63;5048633;28;45542;-82
2022/10/14 01:20:42;;;;;;;;;25.00;22.50;;;;;16.27;90.83;99510.34;5040678;28;45214;-82
2022/10/14 01:23:38;;;;;;;;;22.75;19.00;;;;;16.28;91.04;99503.22;5068459;28;45422;-82
2022/10/14 01:26:22;;;;;;;;;20.00;17.75;;;;;16.25;90.88;99501.63;5052719;28;45471;-81
2022/10/14 01:29:06;;;;;;;;;23.00;18.75;;;;;16.24;91.23;99501.72;5051252;28;45451;-82
2022/10/14 01:31:35;;;;;;;;;22.75;19.00;;;;;16.23;91.49;99497.34;5066183;28;45600;-82
2022/10/14 01:34:07;;;;;;;;;24.75;18.75;;;;;16.22;91.48;99488.50;5053692;28;45495;-81
2022/10/14 01:36:37;;;;;;;;;19.25;16.25;;;;;16.21;91.36;99494.75;5052915;28;46318;-82
2022/10/14 01:39:20;;;;;;;;;21.75;18.75;;;;;16.22;91.62;99487.63;5053352;28;45370;-82
2022/10/14 01:41:53;;;;;;;;;18.75;17.50;;;;;16.22;91.78;99477.84;5069463;28;45442;-82
2022/10/14 01:44:23;;;;;;;;;21.50;21.00;;;;;16.23;91.74;99479.56;5052976;28;45393;-81
2022/10/14 01:46:54;;;;;;;;;17.75;16.00;;;;;16.23;91.99;99484.03;5043139;28;46417;-81
2022/10/14 01:49:30;;;;;;;;;17.25;17.25;;;;;16.25;91.88;99488.31;5050019;28;45647;-81
2022/10/14 01:52:06;;;;;;;;;18.75;18.50;;;;;16.24;91.74;99478.63;5050520;28;45478;-82
2022/10/14 01:54:38;;;;;;;;;18.25;17.00;;;;;16.27;91.71;99470.44;5052819;28;45472;-82
2022/10/14 01:57:08;;;;;;;;;20.75;18.75;;;;;16.29;92.12;99473.88;5052221;28;45538;-81
2022/10/14 01:59:37;;;;;;;;;25.75;20.75;;;;;16.30;92.09;99477.38;5052801;28;45436;-82
2022/10/14 02:02:02;;;;;;;;;20.00;18.25;;;;;16.31;92.27;99479.97;5052148;28;45575;-82
2022/10/14 02:04:28;;;;;;;;;21.25;17.50;;;;;16.32;91.88;99471.03;5051952;28;45549;-82
2022/10/14 02:07:17;;;;;;;;;21.25;18.75;;;;;16.32;91.83;99464.88;5050961;28;45542;-82
2022/10/14 02:10:05;;;;;;;;;17.00;15.75;;;;;16.33;91.55;99472.75;5047268;28;45496;-81
2022/10/14 02:12:46;;;;;;;;;21.50;18.50;;;;;16.32;91.69;99472.84;5050702;28;45585;-82
2022/10/14 02:15:26;;;;;;;;;23.75;19.50;;;;;16.27;92.18;99464.25;5045241;28;45538;-81
2022/10/14 02:18:04;;;;;;;;;21.75;17.50;;;;;16.22;91.95;99455.72;5047198;28;45608;-81
2022/10/14 02:20:39;;;;;;;;;19.00;18.00;;;;;16.20;92.04;99457.59;5051714;28;45627;-82
2022/10/14 02:23:15;;;;;;;;;22.00;18.25;;;;;16.19;92.21;99458.53;5052272;28;45400;-82
2022/10/14 02:25:43;;;;;;;;;24.00;17.25;;;;;16.18;91.77;99463.00;5051043;28;45215;-82
2022/10/14 02:28:14;;;;;;;;;14.50;14.50;;;;;16.19;91.89;99453.22;5052200;28;45469;-82
2022/10/14 02:30:48;;;;;;;;;19.75;17.75;;;;;16.20;91.60;99457.59;5068137;28;46678;-82
2022/10/14 02:33:13;;;;;;;;;16.50;16.50;;;;;16.22;91.17;99459.22;5055044;28;45358;-82
2022/10/14 02:35:41;;;;;;;;;20.25;19.00;;;;;16.23;91.85;99450.31;5052051;28;45418;-82
2022/10/14 02:38:07;;;;;;;;;15.50;15.50;;;;;16.26;91.57;99455.41;5052447;28;46318;-81
2022/10/14 02:40:41;;;;;;;;;18.00;18.00;;;;;16.29;91.52;99447.25;5052311;28;45488;-81
2022/10/14 02:43:09;;;;;;;;;19.00;17.00;;;;;16.30;91.49;99446.31;5052684;28;45522;-82
2022/10/14 02:45:35;;;;;;;;;19.50;18.00;;;;;16.31;91.67;99444.53;5045170;28;45534;-81
2022/10/14 02:48:01;;;;;;;;;18.25;17.00;;;;;16.32;91.88;99438.25;5043790;28;46279;-81
2022/10/14 02:50:26;;;;;;;;;21.50;19.00;;;;;16.31;91.96;99445.38;5050520;28;45581;-82
2022/10/14 02:52:52;;;;;;;;;20.75;16.00;;;;;16.31;91.85;99453.34;5051401;28;45459;-81
2022/10/14 02:55:17;;;;;;;;;18.75;17.75;;;;;16.29;91.95;99449.94;5047950;28;45646;-81
2022/10/14 02:57:42;;;;;;;;;20.25;18.75;;;;;16.27;91.66;99454.47;5051077;28;45594;-81
2022/10/14 03:00:08;;;;;;;;;20.25;17.25;;;;;16.26;92.18;99441.25;5048398;28;45535;-81
2022/10/14 03:02:34;;;;;;;;;18.00;17.00;;;;;16.24;92.10;99446.69;5049685;28;45601;-82
2022/10/14 03:04:59;;;;;;;;;19.50;18.25;;;;;16.25;91.60;99444.91;5048959;28;45405;-81
2022/10/14 03:07:25;;;;;;;;;12.50;11.25;;;;;16.22;92.07;99437.94;5050801;28;46639;-81
2022/10/14 03:09:50;;;;;;;;;15.00;14.50;;;;;16.21;91.98;99438.88;5051030;28;45293;-81
2022/10/14 03:12:15;;;;;;;;;17.00;13.00;;;;;16.20;91.90;99445.16;5051459;28;45321;-81
2022/10/14 03:14:41;;;;;;;;;18.25;16.50;;;;;16.20;92.22;99444.28;5049428;28;45678;-82
2022/10/14 03:17:07;;;;;;;;;28.50;20.75;;;;;16.20;92.17;99433.66;5039455;28;46442;-81
2022/10/14 03:19:33;;;;;;;;;19.50;18.25;;;;;16.20;92.40;99425.69;5050412;28;45531;-82
2022/10/14 03:21:59;;;;;;;;;17.75;17.00;;;;;16.20;92.19;99434.50;5051839;28;45451;-82
2022/10/14 03:24:24;;;;;;;;;17.50;16.00;;;;;16.19;92.49;99429.28;5051670;28;45386;-82
2022/10/14 03:26:50;;;;;;;;;19.75;17.75;;;;;16.18;92.46;99427.56;5051161;28;45605;-82
2022/10/14 03:29:16;;;;;;;;;17.75;16.00;;;;;16.18;92.92;99422.25;5051532;28;45460;-82
2022/10/14 03:31:41;;;;;;;;;27.75;19.75;;;;;16.17;93.22;99421.38;5052192;28;45456;-82
2022/10/14 03:34:06;;;;;;;;;24.00;19.75;;;;;16.18;93.02;99417.78;5051931;28;45621;-82
2022/10/14 03:36:32;;;;;;;;;17.75;16.75;;;;;16.18;93.03;99422.25;5050232;28;45774;-82
2022/10/14 03:38:57;;;;;;;;;22.50;18.75;;;;;16.20;92.97;99415.03;5052228;28;45491;-82
2022/10/14 03:41:22;;;;;;;;;23.00;18.00;;;;;16.21;92.70;99408.78;5052033;28;45760;-82
2022/10/14 03:43:48;;;;;;;;;19.50;17.75;;;;;16.22;92.74;99411.34;5051251;28;45463;-82
2022/10/14 03:46:13;;;;;;;;;24.50;18.25;;;;;16.23;93.16;99414.88;5043182;28;45619;-82
2022/10/14 03:48:39;;;;;;;;;20.75;17.50;;;;;16.21;92.99;99406.97;5043675;28;45544;-82
2022/10/14 03:51:04;;;;;;;;;18.00;17.50;;;;;16.22;92.73;99413.16;5049689;28;45407;-82
2022/10/14 03:53:30;;;;;;;;;19.00;16.50;;;;;16.20;92.57;99409.72;5050423;28;45321;-82
2022/10/14 03:55:55;;;;;;;;;19.00;15.75;;;;;16.20;93.33;99399.94;5049273;28;46204;-81
2022/10/14 03:58:20;;;;;;;;;17.75;17.75;;;;;16.21;92.70;99401.66;5049959;28;45389;-81
2022/10/14 04:00:46;;;;;;;;;19.00;18.25;;;;;16.20;92.88;99399.94;5050897;28;45443;-81
2022/10/14 04:03:11;;;;;;;;;18.00;14.00;;;;;16.18;92.66;99392.97;5050981;28;45314;-81
2022/10/14 04:05:36;;;;;;;;;20.50;17.75;;;;;16.16;93.08;99400.19;5049263;28;47367;-81
2022/10/14 04:08:02;;;;;;;;;22.75;20.00;;;;;16.16;93.07;99397.53;5050525;28;45583;-82
2022/10/14 04:10:27;;;;;;;;;18.25;17.25;;;;;16.16;93.24;99386.88;5050427;28;45558;-82
2022/10/14 04:12:53;;;;;;;;;22.00;21.75;;;;;16.17;93.11;99391.25;5050574;28;45532;-82
2022/10/14 04:15:19;;;;;;;;;18.75;15.75;;;;;16.16;93.09;99387.75;5051299;28;45498;-81
2022/10/14 04:17:44;;;;;;;;;19.50;16.50;;;;;16.18;93.04;99392.97;5044815;28;45389;-81
2022/10/14 04:20:11;;;;;;;;;14.00;12.25;;;;;16.18;93.25;99396.50;5052702;28;45637;-82
2022/10/14 04:22:36;;;;;;;;;18.25;18.25;;;;;16.18;92.90;99392.97;5054109;28;45526;-82
2022/10/14 04:25:02;;;;;;;;;18.00;16.50;;;;;16.19;92.76;99400.03;5054426;28;45438;-81
2022/10/14 04:27:27;;;;;;;;;23.50;20.50;;;;;16.20;92.96;99401.72;5053976;28;45478;-81
2022/10/14 04:29:52;;;;;;;;;20.50;18.00;;;;;16.20;93.35;99399.94;5054037;28;45956;-81
2022/10/14 04:32:18;;;;;;;;;22.50;20.75;;;;;16.21;92.96;99403.44;5053678;28;45463;-81
2022/10/14 04:34:44;;;;;;;;;20.00;13.50;;;;;16.20;93.17;99401.72;5051027;28;48259;-81
2022/10/14 04:37:09;;;;;;;;;19.00;18.25;;;;;16.20;93.17;99401.72;5054213;28;45457;-81
2022/10/14 04:39:35;;;;;;;;;20.75;18.50;;;;;16.21;93.20;99403.44;5053709;28;45562;-81
2022/10/14 04:42:00;;;;;;;;;22.00;20.75;;;;;16.21;93.26;99401.66;5053741;28;45550;-81
2022/10/14 04:44:26;;;;;;;;;17.50;17.00;;;;;16.23;93.52;99397.09;5053733;28;46318;-81
2022/10/14 04:46:51;;;;;;;;;16.25;14.25;;;;;16.23;93.42;99399.75;5043604;28;45414;-81
2022/10/14 04:49:16;;;;;;;;;18.50;18.50;;;;;16.23;93.27;99396.25;5052055;28;45658;-81
2022/10/14 04:51:42;;;;;;;;;18.75;15.00;;;;;16.22;93.17;99405.16;5049235;28;45572;-81
2022/10/14 04:54:07;;;;;;;;;17.25;17.25;;;;;16.20;92.98;99399.94;5052337;28;47333;-81
2022/10/14 04:56:33;;;;;;;;;22.75;19.25;;;;;16.20;93.05;99410.56;5053773;28;45372;-81
2022/10/14 04:58:58;;;;;;;;;19.50;16.25;;;;;16.19;93.00;99402.69;5054785;28;45457;-81
2022/10/14 05:01:23;;;;;;;;;15.75;15.50;;;;;16.19;93.24;99408.84;5050616;28;45571;-81
2022/10/14 05:03:50;;;;;;;;;19.75;17.25;;;;;16.19;93.24;99408.00;5052924;28;46396;-81
2022/10/14 05:06:16;;;;;;;;;18.50;17.25;;;;;16.19;92.83;99416.84;5050658;28;45485;-80
2022/10/14 05:08:41;;;;;;;;;14.25;13.00;;;;;16.21;92.91;99411.44;5053613;28;45441;-82
2022/10/14 05:11:06;;;;;;;;;19.25;18.75;;;;;16.23;92.95;99413.06;5053396;28;45499;-81
2022/10/14 05:13:32;;;;;;;;;22.50;19.75;;;;;16.24;92.88;99409.44;5052768;28;45390;-81
2022/10/14 05:15:57;;;;;;;;;14.50;14.25;;;;;16.22;91.48;99413.16;5049322;28;45752;-80
2022/10/14 05:18:23;;;;;;;;;11.50;8.75;;;;;16.14;91.54;99405.59;5045128;28;45612;-81
2022/10/14 05:20:48;;;;;;;;;18.75;15.25;;;;;16.05;91.59;99404.34;5051871;28;45491;-81
2022/10/14 05:23:14;;;;;;;;;15.75;15.25;;;;;16.00;92.29;99402.88;5052734;28;45921;-81
2022/10/14 05:25:39;;;;;;;;;14.00;14.00;;;;;15.97;92.41;99403.91;5052404;28;45498;-81
2022/10/14 05:28:05;;;;;;;;;31.50;26.75;;;;;15.95;92.77;99397.81;5052215;28;45428;-80
2022/10/14 05:30:31;;;;;;;;;18.75;18.00;;;;;15.92;92.85;99403.31;5048927;28;45565;-81
2022/10/14 05:32:56;;;;;;;;;15.75;14.25;;;;;15.90;93.16;99404.38;5052496;28;46178;-81
2022/10/14 05:35:21;;;;;;;;;18.50;14.50;;;;;15.84;93.77;99408.22;5052318;28;45451;-82
2022/10/14 05:37:47;;;;;;;;;21.00;18.00;;;;;15.80;93.91;99403.16;5053119;28;45423;-81
2022/10/14 05:40:12;;;;;;;;;19.75;19.50;;;;;15.75;94.57;99403.44;5049746;28;45302;-81
2022/10/14 05:42:37;;;;;;;;;17.50;17.00;;;;;15.74;94.41;99393.75;5050764;28;48165;-82
2022/10/14 05:45:04;;;;;;;;;15.00;15.00;;;;;15.73;94.92;99394.69;5052289;28;45633;-82
2022/10/14 05:47:29;;;;;;;;;20.50;17.75;;;;;15.74;94.68;99392.91;5040967;28;45460;-81
2022/10/14 05:49:55;;;;;;;;;20.75;18.50;;;;;15.73;94.63;99394.69;5048738;28;45343;-82
2022/10/14 05:52:20;;;;;;;;;18.25;18.00;;;;;15.76;94.81;99390.97;5020580;28;45554;-82
2022/10/14 05:54:46;;;;;;;;;18.50;17.50;;;;;15.77;94.90;99390.91;5038974;28;45655;-82
2022/10/14 05:57:11;;;;;;;;;21.50;18.25;;;;;15.80;95.02;99392.53;5051626;28;45469;-82
2022/10/14 05:59:37;;;;;;;;;20.50;19.50;;;;;15.81;94.99;99384.47;5048894;28;45347;-82
2022/10/14 06:02:02;;;;;;;;;19.50;16.00;;;;;15.83;94.56;99392.34;5049206;28;46036;-77
2022/10/14 06:04:28;;;;;;;;;22.00;17.75;;;;;15.85;94.43;99390.47;5048975;28;45551;-64
2022/10/14 06:06:53;;;;;;;;;21.75;20.00;;;;;15.89;94.74;99389.38;5046126;28;45566;-66
2022/10/14 06:09:19;;;;;;;;;21.50;20.25;;;;;15.94;94.85;99388.13;5041905;28;45449;-67
2022/10/14 06:11:44;;;;;;;;;22.75;22.50;;;;;16.01;94.81;99388.66;5045555;28;46114;-67
2022/10/14 06:14:10;;;;;;;;;21.50;16.50;;;;;16.06;95.04;99391.91;5048242;28;45482;-66
2022/10/14 06:16:35;;;;;;;;;23.75;21.25;;;;;16.13;95.10;99389.72;5046726;28;45428;-67
2022/10/14 06:19:00;;;;;;;;;26.00;22.50;;;;;16.19;94.64;99394.69;5048644;28;45425;-66
2022/10/14 06:21:26;;;;;;;;;26.25;22.00;;;;;16.25;94.69;99397.88;5047474;28;46087;-67
2022/10/14 06:23:51;;;;;;;;;25.75;23.25;;;;;16.32;94.68;99401.00;5047353;28;45435;-66
2022/10/14 06:26:17;;;;;;;;;23.50;22.00;;;;;16.38;94.62;99411.28;5047214;28;45593;-66
2022/10/14 06:28:42;;;;;;;;;26.00;21.50;;;;;16.42;94.45;99406.66;5062725;28;45596;-66
2022/10/14 06:31:08;;;;;;;;;25.50;23.50;;;;;16.49;93.74;99415.97;5045218;28;45478;-67
2022/10/14 06:33:33;;;;;;;;;26.75;20.50;;;;;16.53;93.78;99421.03;5047319;28;45392;-67
2022/10/14 06:36:01;;;;;;;;;26.00;22.75;;;;;16.56;93.62;99422.66;5046107;28;45450;-66
2022/10/14 06:38:26;;;;;;;;;21.50;19.50;;;;;16.58;93.08;99424.28;5046326;28;45644;-66
2022/10/14 06:40:53;;;;;;;;;18.50;18.50;;;;;16.55;92.52;99423.59;5045398;28;45894;-67
2022/10/14 06:43:19;;;;;;;;;17.00;17.00;;;;;16.49;92.62;99432.78;5047912;28;45542;-67
2022/10/14 06:45:44;;;;;;;;;18.25;15.50;;;;;16.42;92.18;99437.63;5046736;28;45507;-66
2022/10/14 06:48:10;;;;;;;;;22.25;20.75;;;;;16.34;92.73;99436.38;5048115;28;45581;-66
2022/10/14 06:50:35;;;;;;;;;23.00;20.50;;;;;16.28;93.68;99442.88;5046980;28;45770;-67
2022/10/14 06:53:01;;;;;;;;;19.75;19.00;;;;;16.23;93.47;99447.66;5047803;28;45457;-65
2022/10/14 06:55:26;;;;;;;;;21.25;18.00;;;;;16.18;93.27;99448.84;5046648;28;45543;-65
2022/10/14 06:57:52;;;;;;;;;16.00;16.00;;;;;16.13;94.05;99450.91;5047466;28;45714;-67
2022/10/14 07:00:17;;;;;;;;;17.50;14.75;;;;;16.09;93.27;99450.22;5045283;28;46714;-65
2022/10/14 07:02:43;;;;;;;;;17.25;14.50;;;;;16.08;93.34;99451.19;5047483;28;45456;-64
2022/10/14 07:05:09;;;;;;;;;12.25;10.00;;;;;16.09;93.82;99449.38;5046387;28;45464;-64
2022/10/14 07:07:35;;;;;;;;;12.50;9.25;;;;;16.13;93.85;99451.75;5047457;28;45829;-64
2022/10/14 07:10:00;;;;;;;;;15.75;14.00;;;;;16.18;93.32;99451.50;5047622;28;46110;-65
2022/10/14 07:12:26;;;;;;;;;15.75;12.50;;;;;16.25;92.72;99461.72;5046589;28;45492;-66
2022/10/14 07:14:52;;;;;;;;;14.00;12.75;;;;;16.33;92.49;99463.91;5045720;28;45479;-66
2022/10/14 07:17:17;;;;;;;;;18.50;15.75;;;;;16.39;91.86;99466.22;5047820;28;45521;-67
2022/10/14 07:19:43;;;;;;;;;16.00;15.00;;;;;16.46;91.34;99472.03;5045217;28;45521;-67
2022/10/14 07:22:08;;;;;;;;;19.00;18.50;;;;;16.51;91.32;99472.63;5046522;28;45467;-67
2022/10/14 07:24:33;;;;;;;;;20.50;18.25;;;;;16.58;91.57;99474.00;5044353;28;45456;-64
2022/10/14 07:27:00;;;;;;;;;22.00;19.75;;;;;16.67;91.76;99476.13;5046193;28;45518;-64
2022/10/14 07:29:26;;;;;;;;;26.50;24.00;;;;;16.75;92.07;99476.56;5046782;28;46082;-64
2022/10/14 07:31:51;;;;;;;;;24.00;21.50;;;;;16.83;92.65;99482.25;5058898;28;45488;-65
2022/10/14 07:34:17;;;;;;;;;25.75;21.50;;;;;16.93;92.45;99474.56;5052793;28;45553;-65
2022/10/14 07:36:42;;;;;;;;;26.50;25.00;;;;;17.01;92.49;99480.31;5050327;28;45463;-67
2022/10/14 07:39:07;;;;;;;;;25.00;23.25;;;;;17.08;92.58;99479.84;5051726;28;46073;-67
2022/10/14 07:41:33;;;;;;;;;23.25;19.75;;;;;17.15;92.18;99482.97;5063942;28;45417;-67
2022/10/14 07:44:04;;;;;;;;;24.25;22.00;;;;;17.20;91.83;99488.03;5047236;28;45852;-67
2022/10/14 07:46:32;;;;;;;;;26.00;24.50;;;;;17.26;91.24;99493.81;5048780;28;45522;-67
2022/10/14 07:49:08;;;;;;;;;20.25;17.50;;;;;17.31;91.46;99491.75;5048435;28;46012;-66
2022/10/14 07:51:34;;;;;;;;;27.75;24.00;;;;;17.38;90.63;99497.56;5056232;28;45431;-65
2022/10/14 07:54:01;;;;;;;;;27.00;25.00;;;;;17.42;90.84;99497.28;5055577;28;45500;-64
2022/10/14 07:56:27;;;;;;;;;28.50;25.50;;;;;17.48;90.27;99496.03;5056340;28;45499;-65
2022/10/14 07:58:53;;;;;;;;;29.25;25.50;;;;;17.55;89.76;99496.50;5057043;28;45706;-65
2022/10/14 08:01:18;;;;;;;;;26.50;24.50;;;;;17.61;88.87;99494.28;5053524;28;45519;-65
2022/10/14 08:03:46;;;;;;;;;33.50;26.50;;;;;17.68;88.79;99492.16;5089408;27;45693;-65
2022/10/14 08:06:12;;;;;;;;;25.75;24.50;;;;;17.70;88.19;99488.44;5044283;27;45512;-65
2022/10/14 08:08:38;;;;;;;;;23.50;23.50;;;;;17.72;87.78;99494.53;5051167;28;46275;-65
2022/10/14 08:11:10;;;;;;;;;26.00;22.25;;;;;17.71;87.91;99487.47;5054710;28;45392;-65
2022/10/14 08:13:36;;;;;;;;;26.75;24.50;;;;;17.72;88.02;99493.66;5056489;28;45472;-67
2022/10/14 08:16:02;;;;;;;;;28.00;23.25;;;;;17.76;87.68;99497.88;5051232;28;45332;-66
2022/10/14 08:18:29;;;;;;;;;25.50;22.50;;;;;17.82;87.26;99502.78;5054606;28;46213;-66
2022/10/14 08:20:54;;;;;;;;;28.75;24.50;;;;;17.86;86.63;99490.97;5054217;28;45442;-66
2022/10/14 08:23:20;;;;;;;;;23.75;21.75;;;;;17.92;86.28;99500.41;5048909;28;45970;-66
2022/10/14 08:25:49;;;;;;;;;24.75;23.00;;;;;17.97;85.72;99504.47;5054214;28;45492;-66
2022/10/14 08:28:15;;;;;;;;;28.25;26.50;;;;;18.02;85.67;99502.38;5055679;27;47246;-65
2022/10/14 08:30:40;;;;;;;;;25.75;23.75;;;;;18.05;84.79;99501.31;5053769;28;45393;-65
2022/10/14 08:33:06;;;;;;;;;26.75;26.00;;;;;18.07;85.08;99499.41;5056397;27;45352;-65
2022/10/14 08:35:31;;;;;;;;;33.00;26.25;;;;;18.11;85.17;99500.91;5054354;28;45498;-66
2022/10/14 08:37:59;;;;;;;;;30.25;27.75;;;;;18.13;84.76;99501.66;5055291;28;45729;-66
2022/10/14 08:40:27;;;;;;;;;28.25;23.25;;;;;18.17;85.16;99499.66;5050279;28;45414;-66
2022/10/14 08:43:03;;;;;;;;;27.25;25.25;;;;;18.27;85.14;99498.94;5052144;28;45520;-66
2022/10/14 08:45:36;;;;;;;;;29.00;24.50;;;;;18.36;84.24;99502.84;5052543;28;45475;-66
2022/10/14 08:48:08;;;;;;;;;30.00;26.25;;;;;18.46;83.99;99498.59;5054391;28;48508;-66
2022/10/14 08:50:52;;;;;;;;;30.75;26.50;;;;;18.55;83.50;99508.69;5049336;28;45370;-66
2022/10/14 08:53:22;;;;;;;;;20.00;20.00;;;;;18.65;82.89;99492.91;5055604;28;45513;-66
2022/10/14 08:55:55;;;;;;;;;23.50;18.50;;;;;18.73;81.92;99495.94;5053913;28;45581;-65
2022/10/14 08:58:42;;;;;;;;;22.25;20.50;;;;;18.81;81.79;99498.94;5055691;28;46679;-66
2022/10/14 09:01:26;;;;;;;;;19.75;19.50;;;;;18.91;81.24;99499.19;5045578;28;45533;-66
2022/10/14 09:04:13;;;;;;;;;19.25;18.00;;;;;18.94;80.32;99499.81;5055676;28;45630;-66
2022/10/14 09:06:42;;;;;;;;;18.75;18.00;;;;;18.95;80.43;99495.31;5046881;28;45391;-65
2022/10/14 09:09:16;;;;;;;;;17.50;17.50;;;;;19.00;80.40;99503.88;5050741;28;46239;-66
2022/10/14 09:11:45;;;;;;;;;22.50;19.50;;;;;19.09;80.24;99500.59;5054268;28;45394;-67
2022/10/14 09:14:21;;;;;;;;;28.25;24.75;;;;;19.17;80.24;99500.91;5055166;28;45407;-66
2022/10/14 09:16:51;;;;;;;;;24.25;21.25;;;;;19.23;79.51;99505.00;5055204;28;45434;-67
2022/10/14 09:19:35;;;;;;;;;21.50;20.75;;;;;19.32;79.44;99490.97;5055865;28;45965;-66
2022/10/14 09:22:01;;;;;;;;;27.25;24.25;;;;;19.38;79.74;99496.75;5058921;28;45412;-66
2022/10/14 09:24:47;;;;;;;;;20.25;19.00;;;;;19.45;79.20;99492.66;5055456;28;45580;-65
2022/10/14 09:27:23;;;;;;;;;26.25;24.00;;;;;19.54;79.18;99501.91;5052818;28;45395;-65
2022/10/14 09:30:03;;;;;;;;;23.25;21.75;;;;;19.60;78.21;99498.81;5049879;28;46674;-66
2022/10/14 09:32:50;;;;;;;;;19.50;18.00;;;;;19.62;78.15;99501.34;5053883;28;45415;-65
2022/10/14 09:35:29;;;;;;;;;18.75;18.00;;;;;19.67;77.86;99501.88;5050951;28;45472;-65
2022/10/14 09:37:55;;;;;;;;;18.75;18.75;;;;;19.72;77.23;99486.38;5054716;28;45356;-67
2022/10/14 09:40:29;;;;;;;;;23.00;19.25;;;;;19.78;77.36;99492.13;5050528;28;46372;-65
2022/10/14 09:43:04;;;;;;;;;22.50;19.00;;;;;19.82;77.32;99482.91;5042927;28;45280;-67
2022/10/14 09:45:46;;;;;;;;;22.25;20.25;;;;;19.90;76.46;99487.72;5051130;28;45506;-65
2022/10/14 09:48:38;;;;;;;;;21.50;18.50;;;;;19.96;76.18;99489.94;5045522;28;45432;-65
2022/10/14 09:51:18;;;;;;;;;20.00;18.25;;;;;20.01;75.80;99484.25;5049167;27;46561;-67
2022/10/14 09:53:52;;;;;;;;;23.50;22.75;;;;;20.04;75.45;99479.53;5056262;28;45413;-65
2022/10/14 09:56:29;;;;;;;;;24.75;23.25;;;;;20.08;75.81;99478.34;5053714;28;45372;-67
2022/10/14 09:58:56;;;;;;;;;14.50;14.25;;;;;20.09;74.92;99468.50;5054871;28;45424;-65
2022/10/14 10:01:48;;;;;;;;;19.25;18.50;;;;;20.17;74.55;99466.94;5054217;28;45393;-65
2022/10/14 10:04:35;;;;;;;;;22.25;20.50;;;;;20.28;74.42;99451.91;5050695;28;45525;-65
2022/10/14 10:07:05;;;;;;;;;20.75;18.75;;;;;20.41;74.35;99452.75;5050493;28;45506;-66
2022/10/14 10:09:31;;;;;;;;;24.25;22.25;;;;;20.54;73.81;99456.19;5053650;28;45404;-66
2022/10/14 10:11:57;;;;;;;;;22.25;20.25;;;;;20.65;73.00;99445.50;5064557;27;47547;-66
2022/10/14 10:14:26;;;;;;;;;13.50;13.50;;;;;20.75;72.46;99451.03;5052831;28;45365;-66
2022/10/14 10:17:07;;;;;;;;;18.75;18.00;;;;;20.84;72.39;99437.78;5047511;28;45525;-66
2022/10/14 10:19:41;;;;;;;;;15.50;15.00;;;;;20.94;72.16;99437.94;5053969;28;45579;-66
2022/10/14 10:22:37;;;;;;;;;20.00;16.75;;;;;20.99;70.38;99433.03;5049719;28;45395;-66
2022/10/14 10:25:03;;;;;;;;;14.40;14.40;;;;;21.05;70.50;99435.25;5051051;28;45646;-66
2022/10/14 10:27:29;;;;;;;;;18.00;14.00;;;;;21.07;69.55;99429.78;5054256;28;45327;-66
2022/10/14 10:29:57;;;;;;;;;20.75;18.75;;;;;21.12;69.93;99435.63;5067243;28;45615;-66
2022/10/14 10:32:28;;;;;;;;;21.00;17.50;;;;;21.19;69.32;99428.81;5052627;28;45511;-66
2022/10/14 10:35:03;;;;;;;;;16.00;15.00;;;;;21.27;68.91;99438.97;5046704;28;45463;-66
2022/10/14 10:37:44;;;;;;;;;17.50;15.50;;;;;21.33;69.13;99427.75;5043363;28;45482;-65
2022/10/14 10:40:15;;;;;;;;;16.50;15.00;;;;;21.36;68.95;99430.19;5051032;28;45553;-66
2022/10/14 10:42:50;;;;;;;;;17.50;14.50;;;;;21.37;69.06;99423.84;5060572;28;48360;-66
2022/10/14 10:45:37;;;;;;;;;19.00;17.50;;;;;21.34;68.77;99419.56;5052219;28;45511;-66
2022/10/14 10:48:25;;;;;;;;;16.50;16.50;;;;;21.37;68.29;99415.81;5046550;28;45635;-66
2022/10/14 10:51:03;;;;;;;;;19.00;15.50;;;;;21.41;68.80;99417.28;5050791;28;45561;-66
2022/10/14 10:53:54;;;;;;;;;18.00;15.25;;;;;21.48;68.39;99408.59;5053433;28;46392;-66
2022/10/14 10:56:39;;;;;;;;;15.80;15.80;;;;;21.56;68.08;99405.31;5049322;28;45538;-66
2022/10/14 10:59:42;;;;;;;;;19.00;17.00;;;;;21.65;68.46;99401.00;5052553;28;45487;-67
2022/10/14 11:02:38;;;;;;;;;20.50;20.50;;;;;21.71;67.40;99390.66;5048833;28;45614;-66
2022/10/14 11:05:45;;;;;;;;;19.25;18.75;;;;;21.79;67.62;99387.31;5044297;28;46163;-67
2022/10/14 11:12:05;;;;;;;;;17.75;13.75;;;;;21.86;67.08;99384.00;5051644;28;45410;-67
2022/10/14 11:14:58;;;;;;;;;16.75;15.50;;;;;21.95;66.57;99377.88;5048613;28;45411;-67
2022/10/14 11:17:49;;;;;;;;;20.25;18.25;;;;;22.01;66.58;99367.66;5045471;28;46162;-67
2022/10/14 11:20:21;;;;;;;;;16.20;15.20;;;;;22.03;66.51;99368.38;5047930;28;45301;-67
2022/10/14 11:23:03;;;;;;;;;18.75;17.25;;;;;22.07;66.29;99359.09;5053230;28;45388;-67
2022/10/14 11:25:55;;;;;;;;;27.25;23.50;;;;;22.14;66.22;99355.75;5044409;28;45543;-66
2022/10/14 11:28:39;;;;;;;;;26.00;22.25;;;;;22.18;66.22;99356.34;5052869;28;45419;-67
2022/10/14 11:31:15;;;;;;;;;21.60;19.00;;;;;22.26;66.33;99348.50;5047303;28;45482;-67
2022/10/14 11:34:10;;;;;;;;;16.50;16.25;;;;;22.30;66.02;99344.56;5052907;28;45372;-66